首页
METAR-TAF:

METAR-TAF

机场 :

昆明长水国际机场

昆明, 中华人民共和国

纬度: 25-01N, 经度: 102-41E, 海拔: 1892米

当前天气观测

该预报发布于55分钟前的17:00 UTC
风速2节,风向东转东北
温度 18°C
湿度 100%
气压 1014 hPa
能見度: 6000
散云层高于1600英尺
多云层高于4000英尺

METAR: ZPPP 231700Z 06001MPS 6000 SCT016 BKN040 18/18 Q1014 NOSIG

时间: 01:55 (17:55 UTC)

预报

该预报发布于4小时和51分钟前的13:04 UTC
预报有效从23日的 18点(UTC)到 24日的 18点(UTC)
风速8节,风向西南
能见度10公里或以上
散云层高于2000英尺
多云层高于3300英尺

TAF: ZPPP 231304Z 2318/2418 22004MPS 9999 SCT020 BKN033 TX23/2408Z TN16/2323Z

超过4000个机场的气象观测和天气预报(METAR&TAF报告)。

可查询的气象台以黄色和红色小点在地图上表示。

将鼠标移到小点上方,可查看气象台名称。

然后点击查看天气观测和预报。

如需切换地图:点击带黑十字的绿色按钮放大地图;点击带横线的绿色按钮缩小地图;或者点击绿色箭头查看邻近地区的地图。


METAR-TAF: